Time;durP1;ratioP1;P1;durP2;ratioP2;P2;SDS_P1;SDS_P2;PMS_P1;PMS_P2;Temp;Humidity;BMP_temperature;BMP_pressure;BME280_temperature;BME280_humidity;BME280_pressure;Samples;Min_cycle;Max_cycle;Signal;HPM_P1;HPM_P2
2022/03/21 00:01:51;;;;;;;12.25;5.50;;;;;;;0.26;39.47;102120.78;4480966;32;35921;-75
2022/03/21 00:04:38;;;;;;;13.27;5.40;;;;;;;0.37;39.59;102117.66;4480185;32;35171;-75
2022/03/21 00:07:23;;;;;;;12.73;6.47;;;;;;;0.33;39.51;102117.19;4481488;32;33766;-75
2022/03/21 00:10:10;;;;;;;13.10;5.10;;;;;;;0.24;39.07;102117.44;4459280;32;35588;-75
2022/03/21 00:12:56;;;;;;;13.98;5.80;;;;;;;-0.18;40.12;102108.00;4468702;32;35859;-76
2022/03/21 00:15:43;;;;;;;10.23;5.15;;;;;;;0.23;39.42;102111.22;4477977;32;34201;-75
2022/03/21 00:18:31;;;;;;;13.57;5.87;;;;;;;-0.05;39.80;102106.38;4457297;32;35187;-76
2022/03/21 00:21:17;;;;;;;11.80;5.87;;;;;;;-0.23;40.19;102113.91;4464701;32;35698;-76
2022/03/21 00:24:04;;;;;;;11.80;5.00;;;;;;;-1.16;42.27;102112.03;4480849;32;35713;-75
2022/03/21 00:26:51;;;;;;;11.23;5.70;;;;;;;-0.29;40.98;102112.78;4474549;32;35662;-76
2022/03/21 00:29:39;;;;;;;13.30;5.45;;;;;;;-0.28;40.13;102113.62;4475141;32;35059;-76
2022/03/21 00:32:25;;;;;;;10.30;4.78;;;;;;;-0.58;41.60;102112.63;4481034;32;34679;-76
2022/03/21 00:35:16;;;;;;;11.32;5.07;;;;;;;0.07;39.96;102112.19;4468515;32;35091;-76
2022/03/21 00:38:03;;;;;;;9.63;4.70;;;;;;;0.32;39.24;102103.91;4478743;32;34612;-75
2022/03/21 00:40:50;;;;;;;10.82;5.47;;;;;;;0.30;38.93;102111.31;4468834;32;34170;-75
2022/03/21 00:43:37;;;;;;;13.32;5.45;;;;;;;0.60;39.00;102101.44;4468090;32;35549;-76
2022/03/21 00:46:23;;;;;;;15.50;6.35;;;;;;;0.64;38.72;102103.56;4481010;32;34474;-76
2022/03/21 00:49:12;;;;;;;10.65;4.97;;;;;;;0.66;38.35;102100.69;4468762;32;34493;-76
2022/03/21 00:51:58;;;;;;;11.98;5.47;;;;;;;0.61;38.14;102100.41;4479113;32;33975;-76
2022/03/21 00:54:45;;;;;;;11.75;5.32;;;;;;;0.63;37.89;102092.97;4468967;32;34636;-76
2022/03/21 00:57:32;;;;;;;11.00;4.62;;;;;;;0.47;38.46;102085.88;4480611;32;37347;-76
2022/03/21 01:00:21;;;;;;;9.75;4.93;;;;;;;0.61;37.93;102092.31;4467745;32;34703;-76
2022/03/21 01:03:07;;;;;;;13.30;5.32;;;;;;;0.30;38.25;102098.66;4469032;32;34109;-75
2022/03/21 01:05:54;;;;;;;11.93;4.82;;;;;;;-1.66;42.30;102091.63;4479991;32;35230;-75
2022/03/21 01:08:40;;;;;;;12.07;5.03;;;;;;;-1.95;44.18;102095.69;4478840;32;35786;-76
2022/03/21 01:11:26;;;;;;;12.30;5.28;;;;;;;-1.22;43.39;102093.91;4480552;32;34324;-76
2022/03/21 01:14:13;;;;;;;10.73;5.70;;;;;;;-0.25;41.17;102097.09;4456358;32;33733;-76
2022/03/21 01:17:00;;;;;;;12.02;5.22;;;;;;;-0.40;41.29;102104.25;4477994;32;34613;-76
2022/03/21 01:19:46;;;;;;;12.48;4.97;;;;;;;-1.14;42.42;102092.03;4480815;32;35023;-76
2022/03/21 01:22:33;;;;;;;10.00;4.80;;;;;;;-0.27;40.49;102099.13;4479262;32;35326;-75
2022/03/21 01:25:19;;;;;;;16.40;5.15;;;;;;;-0.44;40.66;102089.50;4479459;32;35279;-76
2022/03/21 01:28:06;;;;;;;11.15;5.12;;;;;;;-0.15;40.63;102095.00;4473558;32;34262;-75
2022/03/21 01:30:52;;;;;;;14.25;4.82;;;;;;;0.20;40.13;102100.81;4480879;32;34926;-76
2022/03/21 01:33:40;;;;;;;11.75;4.78;;;;;;;0.15;39.77;102081.63;4480975;32;34733;-76
2022/03/21 01:36:27;;;;;;;16.55;7.03;;;;;;;0.17;40.03;102084.97;4479477;32;34253;-76
2022/03/21 01:39:13;;;;;;;16.77;6.55;;;;;;;0.57;38.99;102082.88;4480204;32;35191;-76
2022/03/21 01:41:59;;;;;;;14.98;6.82;;;;;;;0.50;38.96;102085.50;4478274;32;34916;-75
2022/03/21 01:44:50;;;;;;;13.52;5.60;;;;;;;-1.23;42.19;102078.75;4477937;32;35524;-76
2022/03/21 01:47:36;;;;;;;15.55;5.90;;;;;;;-1.56;43.89;102086.94;4480487;32;34182;-75
2022/03/21 01:50:22;;;;;;;12.20;5.80;;;;;;;-0.96;43.41;102082.88;4480314;32;34745;-76
2022/03/21 01:56:15;;;;;;;11.98;6.43;;;;;;;0.09;41.00;102087.75;4479542;32;35545;-76
2022/03/21 01:59:01;;;;;;;11.82;5.05;;;;;;;0.17;41.05;102072.34;4460070;32;33792;-76
2022/03/21 02:01:49;;;;;;;11.10;5.40;;;;;;;0.10;41.11;102081.34;4468067;32;34161;-76
2022/03/21 02:04:35;;;;;;;9.25;4.82;;;;;;;-0.18;41.24;102081.88;4455758;32;37179;-75
2022/03/21 02:07:23;;;;;;;8.70;4.35;;;;;;;-0.15;40.71;102073.44;4467233;32;34563;-76
2022/03/21 02:10:10;;;;;;;9.30;4.65;;;;;;;-0.12;40.60;102070.37;4478049;32;34064;-75
2022/03/21 02:12:57;;;;;;;10.07;4.35;;;;;;;-0.20;40.75;102067.75;4470991;32;34504;-76
2022/03/21 02:15:44;;;;;;;9.32;4.10;;;;;;;-0.33;41.52;102071.06;4477371;32;35657;-75
2022/03/21 02:18:30;;;;;;;10.10;4.55;;;;;;;-0.31;41.25;102070.87;4477452;32;34787;-75
2022/03/21 02:21:27;;;;;;;10.65;5.00;;;;;;;-0.51;40.87;102065.97;4480108;32;34281;-76
2022/03/21 02:24:28;;;;;;;10.60;4.53;;;;;;;-0.33;41.12;102062.12;4480300;32;34435;-75
2022/03/21 02:27:16;;;;;;;11.10;5.18;;;;;;;-0.27;41.32;102067.63;4480270;32;34629;-75
2022/03/21 02:30:04;;;;;;;11.18;5.50;;;;;;;-0.25;41.34;102068.31;4467202;32;34357;-75
2022/03/21 02:32:50;;;;;;;15.70;6.00;;;;;;;-0.30;41.63;102064.47;4472061;32;34129;-75
2022/03/21 02:35:38;;;;;;;11.63;4.90;;;;;;;-0.60;42.06;102058.94;4466816;32;34663;-75
2022/03/21 02:38:25;;;;;;;11.80;5.55;;;;;;;-0.50;41.67;102066.81;4467743;32;34474;-75
2022/03/21 02:41:15;;;;;;;14.43;6.47;;;;;;;-0.55;41.59;102063.81;4479796;32;34714;-76
2022/03/21 02:44:01;;;;;;;14.70;6.50;;;;;;;-0.52;41.53;102053.50;4464213;32;33818;-75
2022/03/21 02:46:48;;;;;;;15.40;6.75;;;;;;;-0.57;42.09;102058.59;4478121;32;34236;-75
2022/03/21 02:49:34;;;;;;;12.10;5.70;;;;;;;-0.69;42.35;102054.63;4478764;32;35887;-75
2022/03/21 02:52:22;;;;;;;12.05;5.28;;;;;;;-0.72;42.29;102061.19;4467325;32;34725;-75
2022/03/21 02:55:09;;;;;;;11.45;5.05;;;;;;;-0.75;42.24;102053.47;4469748;32;34103;-75
2022/03/21 02:57:55;;;;;;;10.43;4.60;;;;;;;-0.70;41.73;102055.66;4480548;32;34293;-75
2022/03/21 03:00:41;;;;;;;12.70;4.93;;;;;;;-0.61;41.79;102053.75;4481621;32;35599;-75
2022/03/21 03:03:28;;;;;;;13.52;4.95;;;;;;;-0.71;41.73;102059.38;4481532;32;34331;-75
2022/03/21 03:06:14;;;;;;;9.15;4.35;;;;;;;-0.67;41.44;102060.69;4481459;32;35090;-75
2022/03/21 03:09:01;;;;;;;15.25;4.90;;;;;;;-0.64;41.42;102054.09;4472674;32;35661;-75
2022/03/21 03:11:47;;;;;;;10.93;5.05;;;;;;;-0.65;41.43;102055.97;4481327;32;35885;-75
2022/03/21 03:14:34;;;;;;;10.77;4.35;;;;;;;-0.69;41.69;102052.75;4472847;32;34519;-75
2022/03/21 03:17:20;;;;;;;12.05;5.05;;;;;;;-0.62;41.57;102055.59;4468086;32;34300;-75
2022/03/21 03:20:08;;;;;;;11.93;5.20;;;;;;;-0.47;41.21;102053.81;4481608;32;34391;-74
2022/03/21 03:22:55;;;;;;;11.93;5.10;;;;;;;-0.60;41.57;102055.41;4481754;32;35990;-75
2022/03/21 03:25:41;;;;;;;11.88;4.97;;;;;;;-0.50;41.52;102056.03;4477497;32;33356;-75
2022/03/21 03:28:27;;;;;;;14.35;5.00;;;;;;;-0.62;41.88;102062.84;4481754;32;34215;-75
2022/03/21 03:31:31;;;;;;;14.18;5.18;;;;;;;-0.70;42.04;102053.78;4481569;32;34235;-75
2022/03/21 03:34:18;;;;;;;11.57;5.47;;;;;;;-0.56;41.62;102059.44;4477412;32;36081;-75
2022/03/21 03:37:04;;;;;;;12.13;5.45;;;;;;;-0.52;41.12;102058.06;4480605;32;34422;-75
2022/03/21 03:39:51;;;;;;;12.02;5.20;;;;;;;-0.36;40.81;102065.19;4479157;32;35116;-75
2022/03/21 03:42:37;;;;;;;10.52;5.10;;;;;;;-0.29;40.43;102064.28;4480370;32;34754;-75
2022/03/21 03:45:23;;;;;;;12.68;6.25;;;;;;;-1.09;42.34;102061.88;4468522;32;34378;-75
2022/03/21 03:48:10;;;;;;;13.15;5.30;;;;;;;-0.78;42.95;102063.78;4481451;32;36007;-75
2022/03/21 03:50:56;;;;;;;13.13;5.82;;;;;;;-0.79;42.42;102067.50;4477855;32;34061;-76
2022/03/21 03:53:43;;;;;;;11.35;5.18;;;;;;;-0.26;41.66;102073.84;4468666;32;35796;-75
2022/03/21 03:56:29;;;;;;;10.80;5.20;;;;;;;-0.34;42.14;102071.22;4469322;32;35932;-75
2022/03/21 03:59:15;;;;;;;11.80;5.80;;;;;;;-0.28;42.40;102078.63;4478740;32;34597;-75
2022/03/21 04:02:01;;;;;;;16.05;6.15;;;;;;;-0.53;42.82;102075.25;4469455;32;33786;-75
2022/03/21 04:04:48;;;;;;;12.75;5.07;;;;;;;-0.37;42.83;102075.13;4462458;32;33541;-75
2022/03/21 04:07:35;;;;;;;14.55;6.75;;;;;;;-0.38;43.03;102075.31;4481514;32;34759;-75
2022/03/21 04:10:22;;;;;;;16.70;7.55;;;;;;;-0.46;43.16;102074.34;4480474;32;34816;-75
2022/03/21 04:13:08;;;;;;;15.32;7.20;;;;;;;-0.52;43.62;102071.53;4468559;32;33962;-75
2022/03/21 04:15:54;;;;;;;17.08;7.70;;;;;;;-0.74;44.33;102070.47;4475332;32;34601;-75
2022/03/21 04:18:41;;;;;;;17.23;7.57;;;;;;;-0.59;43.79;102071.41;4468509;32;36031;-75
2022/03/21 04:21:45;;;;;;;18.40;7.72;;;;;;;-0.74;44.33;102075.84;4481076;32;35121;-75
2022/03/21 04:24:31;;;;;;;15.20;6.45;;;;;;;-1.05;45.44;102073.13;4481156;32;35118;-75
2022/03/21 04:27:17;;;;;;;12.32;6.37;;;;;;;-1.49;46.81;102077.16;4469081;32;34606;-75
2022/03/21 04:30:05;;;;;;;17.42;6.95;;;;;;;-1.51;46.83;102073.78;4457419;32;35497;-75
2022/03/21 04:32:51;;;;;;;14.85;6.62;;;;;;;-0.99;45.53;102073.28;4479996;32;34702;-75
2022/03/21 04:35:38;;;;;;;17.02;7.00;;;;;;;-1.22;45.94;102072.38;4480746;32;34161;-75
2022/03/21 04:38:24;;;;;;;11.70;6.75;;;;;;;-1.19;45.81;102088.19;4467842;32;34357;-75
2022/03/21 04:41:11;;;;;;;17.85;7.30;;;;;;;-0.72;45.12;102079.22;4475360;32;35953;-75
2022/03/21 04:43:57;;;;;;;13.48;6.75;;;;;;;-0.64;44.71;102078.34;4478371;32;34584;-76
2022/03/21 04:46:44;;;;;;;13.25;6.65;;;;;;;-1.19;46.28;102083.63;4467758;32;33885;-75
2022/03/21 04:49:30;;;;;;;15.02;6.62;;;;;;;-1.34;46.67;102089.88;4480641;32;34563;-75
2022/03/21 04:52:16;;;;;;;12.77;6.43;;;;;;;-1.29;46.70;102093.75;4480488;32;36033;-75
2022/03/21 04:55:03;;;;;;;16.00;6.80;;;;;;;-1.49;47.24;102093.28;4476883;32;34554;-75
2022/03/21 04:57:49;;;;;;;16.75;6.53;;;;;;;-1.82;48.31;102098.72;4480943;32;34338;-75
2022/03/21 05:00:38;;;;;;;12.93;5.70;;;;;;;-1.14;46.56;102100.09;4467547;32;34570;-75
2022/03/21 05:03:25;;;;;;;12.60;5.75;;;;;;;-2.27;49.00;102092.00;4478285;32;34933;-75
2022/03/21 05:06:14;;;;;;;16.87;5.78;;;;;;;-1.70;47.81;102095.69;4480458;32;33766;-75
2022/03/21 05:09:03;;;;;;;14.18;6.10;;;;;;;-1.43;47.23;102094.44;4479920;32;34395;-75
2022/03/21 05:11:50;;;;;;;18.30;5.65;;;;;;;-1.30;47.16;102100.16;4480701;32;34722;-75
2022/03/21 05:14:36;;;;;;;13.70;6.28;;;;;;;-1.07;45.51;102099.41;4480203;32;36003;-73
2022/03/21 05:17:23;;;;;;;12.32;5.45;;;;;;;-1.10;45.76;102094.37;4468502;32;35623;-73
2022/03/21 05:20:16;;;;;;;13.40;5.82;;;;;;;-1.18;45.43;102100.59;4467664;32;35207;-73
2022/03/21 05:32:16;;;;;;;14.55;6.47;;;;;;;-1.24;46.57;102099.44;4480523;32;34150;-73
2022/03/21 05:38:07;;;;;;;16.80;7.18;;;;;;;-0.80;46.06;102106.16;4478746;32;35944;-73
2022/03/21 05:41:03;;;;;;;17.02;8.07;;;;;;;-1.01;46.58;102109.47;4468565;32;34363;-73
2022/03/21 05:43:50;;;;;;;19.17;7.68;;;;;;;-1.32;47.56;102109.41;4460546;32;34191;-73
2022/03/21 05:46:37;;;;;;;14.82;7.60;;;;;;;-0.91;46.99;102108.25;4471411;32;35549;-73
2022/03/21 05:49:23;;;;;;;18.50;8.32;;;;;;;-0.52;46.43;102115.44;4480338;32;36384;-73
2022/03/21 05:52:10;;;;;;;21.02;9.40;;;;;;;-0.70;46.64;102114.87;4475245;32;34710;-74
2022/03/21 05:54:56;;;;;;;18.00;9.00;;;;;;;-1.16;47.52;102112.88;4467152;32;34095;-74
2022/03/21 05:57:43;;;;;;;20.30;8.48;;;;;;;-1.29;48.51;102112.56;4470760;32;34872;-74
2022/03/21 06:00:29;;;;;;;17.73;8.82;;;;;;;-1.13;48.20;102114.38;4468953;32;35929;-72
2022/03/21 06:03:15;;;;;;;20.83;9.20;;;;;;;-1.00;48.30;102114.66;4468216;32;35651;-71
2022/03/21 06:06:02;;;;;;;19.42;9.15;;;;;;;-0.31;46.52;102119.38;4478954;32;35379;-71
2022/03/21 06:08:51;;;;;;;20.83;10.30;;;;;;;-0.20;45.51;102126.19;4469881;32;35678;-71
2022/03/21 06:11:37;;;;;;;22.67;10.60;;;;;;;0.03;45.39;102126.19;4479449;32;34906;-71
2022/03/21 06:14:24;;;;;;;21.20;9.27;;;;;;;0.21;44.59;102118.66;4478732;32;35295;-71
2022/03/21 06:17:09;;;;;;;21.10;9.68;;;;;;;0.35;44.06;102117.00;4474771;32;34229;-73
2022/03/21 06:19:56;;;;;;;21.45;10.40;;;;;;;0.34;44.56;102124.28;4479055;32;34499;-72
2022/03/21 06:22:43;;;;;;;22.00;10.30;;;;;;;0.49;45.14;102124.28;4478867;32;35086;-72
2022/03/21 06:25:29;;;;;;;24.75;10.32;;;;;;;0.56;44.88;102133.31;4470253;32;34242;-73
2022/03/21 06:28:15;;;;;;;21.50;10.00;;;;;;;0.72;45.21;102126.94;4475650;32;34279;-72
2022/03/21 06:31:03;;;;;;;23.65;10.45;;;;;;;0.92;44.35;102129.09;4479315;32;34620;-71
2022/03/21 06:33:49;;;;;;;20.50;10.02;;;;;;;1.04;43.86;102128.41;4475554;32;34945;-72
2022/03/21 06:36:35;;;;;;;22.10;10.10;;;;;;;1.16;43.65;102134.16;4466216;32;34522;-72
2022/03/21 06:39:21;;;;;;;18.42;8.75;;;;;;;1.27;43.62;102125.59;4478857;32;33602;-72
2022/03/21 06:42:11;;;;;;;17.70;7.32;;;;;;;1.37;42.64;102125.31;4478994;32;35187;-70
2022/03/21 06:44:57;;;;;;;17.05;7.18;;;;;;;1.76;39.99;102122.19;4460900;32;34990;-71
2022/03/21 06:47:43;;;;;;;15.15;6.78;;;;;;;2.08;39.60;102130.00;4479640;32;33387;-72
2022/03/21 06:50:30;;;;;;;15.38;7.00;;;;;;;2.55;37.71;102132.06;4479324;32;34238;-72
2022/03/21 06:53:16;;;;;;;15.30;7.97;;;;;;;2.85;38.50;102135.41;4472054;32;34580;-72
2022/03/21 06:56:03;;;;;;;13.32;6.95;;;;;;;3.04;37.78;102128.44;4473163;32;35804;-72
2022/03/21 06:58:49;;;;;;;16.85;7.90;;;;;;;3.15;37.35;102130.56;4469524;32;34812;-72
2022/03/21 07:01:36;;;;;;;15.57;7.43;;;;;;;3.43;36.72;102131.53;4477455;32;35185;-72
2022/03/21 07:04:24;;;;;;;17.48;8.20;;;;;;;3.66;36.00;102139.34;4472656;32;34383;-72
2022/03/21 07:07:10;;;;;;;17.10;8.85;;;;;;;4.01;35.19;102132.75;4469416;32;35869;-73
2022/03/21 07:09:56;;;;;;;19.20;8.02;;;;;;;3.97;35.26;102144.22;4479661;32;34212;-74
2022/03/21 07:12:43;;;;;;;17.17;8.20;;;;;;;4.02;34.79;102131.72;4471915;32;34261;-73
2022/03/21 07:15:29;;;;;;;16.52;7.97;;;;;;;4.34;34.37;102145.50;4478529;32;35559;-74
2022/03/21 07:18:15;;;;;;;15.65;7.70;;;;;;;4.25;34.85;102147.59;4476172;32;35711;-74
2022/03/21 07:21:02;;;;;;;16.60;7.95;;;;;;;4.68;34.18;102149.06;4477433;32;34706;-73
2022/03/21 07:23:48;;;;;;;18.17;8.77;;;;;;;4.82;33.46;102142.56;4477393;32;35434;-74
2022/03/21 07:26:36;;;;;;;15.10;7.50;;;;;;;4.81;33.19;102146.34;4476895;32;34731;-74
2022/03/21 07:29:22;;;;;;;17.25;8.38;;;;;;;4.96;32.63;102138.78;4466469;32;36951;-72
2022/03/21 07:32:09;;;;;;;20.27;8.25;;;;;;;5.52;32.13;102139.19;4471045;32;34640;-74
2022/03/21 07:34:54;;;;;;;14.82;7.78;;;;;;;5.53;31.11;102139.00;4470599;32;35096;-73
2022/03/21 07:37:48;;;;;;;15.40;8.07;;;;;;;5.43;30.55;102143.22;4466474;32;34263;-75
2022/03/21 07:40:34;;;;;;;15.07;8.10;;;;;;;5.85;30.85;102141.75;4475339;32;34704;-75
2022/03/21 07:43:20;;;;;;;21.87;9.40;;;;;;;6.33;30.50;102145.88;4456937;32;35389;-75
2022/03/21 07:49:12;;;;;;;16.10;9.20;;;;;;;6.29;30.01;102143.59;4479983;32;34385;-75
2022/03/21 07:51:58;;;;;;;17.70;8.95;;;;;;;6.59;30.50;102137.47;4478123;32;35652;-73
2022/03/21 07:54:53;;;;;;;16.23;8.57;;;;;;;6.58;29.83;102138.53;4466446;32;34732;-74
2022/03/21 07:57:39;;;;;;;19.17;8.48;;;;;;;6.36;29.73;102146.25;4460857;32;34281;-73
2022/03/21 08:00:30;;;;;;;17.05;8.60;;;;;;;6.37;30.65;102152.53;4471572;32;34667;-74
2022/03/21 08:03:17;;;;;;;15.20;8.52;;;;;;;6.74;29.34;102153.47;4477909;32;36061;-74
2022/03/21 08:06:07;;;;;;;18.48;9.30;;;;;;;6.93;29.34;102146.16;4480363;32;34123;-73
2022/03/21 08:08:57;;;;;;;17.95;9.00;;;;;;;7.19;29.30;102145.03;4468633;32;35114;-73
2022/03/21 08:11:43;;;;;;;14.75;9.52;;;;;;;7.12;28.97;102144.31;4478110;32;34575;-74
2022/03/21 08:14:29;;;;;;;17.90;8.68;;;;;;;7.02;29.48;102144.81;4475933;32;35042;-73
2022/03/21 08:17:16;;;;;;;17.48;8.98;;;;;;;7.30;28.51;102143.47;4474826;32;35522;-76
2022/03/21 08:20:03;;;;;;;17.92;9.30;;;;;;;7.51;28.47;102147.59;4479818;32;34793;-75
2022/03/21 08:22:49;;;;;;;16.25;8.77;;;;;;;7.82;28.00;102139.19;4471411;31;35536;-75
2022/03/21 08:25:36;;;;;;;22.83;10.07;;;;;;;7.82;27.74;102136.47;4469555;32;34672;-74
2022/03/21 08:28:23;;;;;;;21.05;10.98;;;;;;;7.75;28.46;102137.66;4477869;32;34677;-75
2022/03/21 08:31:12;;;;;;;17.17;9.18;;;;;;;7.79;28.10;102134.19;4467887;32;33752;-74
2022/03/21 08:33:59;;;;;;;16.23;9.30;;;;;;;8.10;27.23;102137.75;4477895;32;34689;-74
2022/03/21 08:36:45;;;;;;;14.77;8.65;;;;;;;8.23;27.26;102134.00;4478883;32;34982;-74
2022/03/21 08:39:31;;;;;;;17.55;9.35;;;;;;;8.25;27.31;102135.44;4475502;32;34278;-74
2022/03/21 08:42:18;;;;;;;21.73;9.50;;;;;;;7.83;28.20;102140.06;4474537;31;33944;-74
2022/03/21 08:45:05;;;;;;;17.75;8.82;;;;;;;8.01;27.01;102128.22;4477508;32;33589;-74
2022/03/21 08:47:51;;;;;;;16.05;9.20;;;;;;;8.04;27.28;102128.59;4465428;32;34586;-75
2022/03/21 08:50:42;;;;;;;17.77;9.27;;;;;;;8.51;26.76;102128.72;4476363;32;34835;-76
2022/03/21 08:53:29;;;;;;;19.83;10.55;;;;;;;9.01;26.14;102122.75;4471907;32;34360;-76
2022/03/21 08:56:15;;;;;;;18.25;10.05;;;;;;;8.36;26.71;102120.09;4478765;32;35269;-76
2022/03/21 08:59:02;;;;;;;17.23;9.93;;;;;;;9.04;26.40;102120.63;4479220;32;34986;-76
2022/03/21 09:01:48;;;;;;;17.45;9.95;;;;;;;9.46;26.11;102127.53;4474065;32;35336;-75
2022/03/21 09:04:35;;;;;;;18.62;9.95;;;;;;;9.40;25.95;102120.31;4478056;32;34102;-75
2022/03/21 09:07:21;;;;;;;25.83;10.75;;;;;;;9.84;25.41;102111.56;4479387;32;34286;-76
2022/03/21 09:10:11;;;;;;;19.73;10.13;;;;;;;9.93;25.37;102117.47;4468649;32;34576;-75
2022/03/21 09:12:57;;;;;;;17.90;10.48;;;;;;;10.21;24.98;102108.37;4477786;32;35574;-75
2022/03/21 09:15:43;;;;;;;23.15;10.57;;;;;;;9.94;24.86;102102.72;4472396;32;34647;-76
2022/03/21 09:18:29;;;;;;;18.75;9.77;;;;;;;10.59;24.72;102107.66;4476302;32;34571;-78
2022/03/21 09:21:16;;;;;;;18.87;9.90;;;;;;;10.73;25.26;102100.75;4471749;32;35835;-76
2022/03/21 09:24:03;;;;;;;17.60;9.82;;;;;;;10.49;25.15;102096.53;4473660;32;34260;-75
2022/03/21 09:26:50;;;;;;;17.02;9.73;;;;;;;11.01;23.84;102096.16;4467438;32;34135;-73
2022/03/21 09:29:37;;;;;;;20.83;10.30;;;;;;;10.49;24.01;102099.28;4464159;32;34521;-74
2022/03/21 09:32:25;;;;;;;19.65;10.10;;;;;;;11.40;23.57;102093.38;4468407;32;34608;-74
2022/03/21 09:35:13;;;;;;;18.52;10.85;;;;;;;11.27;23.42;102089.12;4472610;32;34264;-75
2022/03/21 09:38:03;;;;;;;19.20;11.02;;;;;;;11.53;23.10;102090.25;4467108;32;33989;-74
2022/03/21 09:40:49;;;;;;;17.30;9.90;;;;;;;12.33;23.04;102087.72;4459421;32;35744;-74
2022/03/21 09:43:37;;;;;;;17.08;10.27;;;;;;;13.08;20.97;102087.63;4479911;32;34723;-76
2022/03/21 09:46:24;;;;;;;17.67;10.60;;;;;;;13.48;21.22;102087.00;4476076;31;34497;-76
2022/03/21 09:49:12;;;;;;;20.27;9.45;;;;;;;12.65;21.43;102084.09;4477483;32;35327;-75
2022/03/21 09:51:58;;;;;;;18.73;10.30;;;;;;;14.08;19.88;102087.37;4470694;32;34079;-76
2022/03/21 09:54:45;;;;;;;17.42;8.80;;;;;;;14.23;19.00;102079.12;4472609;32;36035;-75
2022/03/21 09:57:32;;;;;;;15.77;9.48;;;;;;;14.60;18.99;102080.78;4473979;32;34357;-75
2022/03/21 10:00:18;;;;;;;13.57;8.35;;;;;;;14.83;19.04;102073.81;4453677;32;34225;-75
2022/03/21 10:03:05;;;;;;;17.33;9.23;;;;;;;14.83;17.49;102074.66;4466639;32;33565;-76
2022/03/21 10:05:51;;;;;;;16.98;9.82;;;;;;;15.24;17.67;102071.72;4465452;32;35731;-78
2022/03/21 10:08:38;;;;;;;16.10;9.68;;;;;;;15.25;18.26;102065.13;4477985;32;35193;-78
2022/03/21 10:11:24;;;;;;;12.80;8.63;;;;;;;15.25;19.83;102067.87;4476039;32;35006;-78
2022/03/21 10:14:32;;;;;;;16.65;8.77;;;;;;;15.47;17.64;102064.69;4468311;32;35616;-77
2022/03/21 10:17:22;;;;;;;21.60;9.63;;;;;;;16.01;16.90;102056.63;4476363;31;35987;-78
2022/03/21 10:20:14;;;;;;;16.17;9.32;;;;;;;16.45;16.48;102053.75;4468697;32;34677;-77
2022/03/21 10:23:24;;;;;;;15.48;9.80;;;;;;;15.41;17.23;102053.97;4451544;32;34074;-78
2022/03/21 10:26:30;;;;;;;17.37;9.60;;;;;;;16.30;18.08;102048.34;4477294;31;35642;-78
2022/03/21 10:29:17;;;;;;;14.15;9.15;;;;;;;16.99;18.20;102055.41;4466807;31;36636;-79
2022/03/21 10:32:04;;;;;;;15.65;10.02;;;;;;;16.96;15.71;102050.47;4476672;32;35187;-75
2022/03/21 10:34:59;;;;;;;16.77;9.35;;;;;;;15.56;16.88;102045.59;4464768;32;34203;-75
2022/03/21 10:37:48;;;;;;;13.07;9.32;;;;;;;16.78;16.52;102037.37;4468575;32;34308;-76
2022/03/21 10:40:41;;;;;;;17.10;10.43;;;;;;;17.37;15.69;102026.94;4467134;32;35993;-76
2022/03/21 10:43:28;;;;;;;14.75;9.90;;;;;;;16.47;16.88;102026.59;4477740;32;34573;-76
2022/03/21 10:46:14;;;;;;;14.27;9.70;;;;;;;16.37;16.47;102023.97;4478245;32;34299;-76
2022/03/21 10:49:09;;;;;;;14.50;9.25;;;;;;;13.93;18.49;102019.31;4477951;32;34770;-79
2022/03/21 10:51:56;;;;;;;14.38;9.25;;;;;;;14.97;17.78;102016.06;4473480;32;35025;-80
2022/03/21 10:54:50;;;;;;;15.00;9.35;;;;;;;16.32;16.65;102013.75;4476063;32;34619;-79
2022/03/21 10:57:37;;;;;;;17.23;9.93;;;;;;;15.96;16.96;102010.50;4472390;32;33667;-79
2022/03/21 11:00:26;;;;;;;15.25;9.57;;;;;;;16.80;16.16;102013.00;4478389;31;34602;-80
2022/03/21 11:03:15;;;;;;;14.95;9.60;;;;;;;16.77;16.35;102013.59;4469632;32;34660;-80
2022/03/21 11:06:03;;;;;;;15.15;9.43;;;;;;;16.95;15.19;101998.12;4467808;32;35117;-79
2022/03/21 11:08:52;;;;;;;18.85;9.60;;;;;;;16.64;15.36;101992.94;4471830;32;35088;-80
2022/03/21 11:11:38;;;;;;;16.50;7.32;;;;;;;15.99;15.73;101998.03;4472770;32;34439;-79
2022/03/21 11:14:25;;;;;;;13.45;7.80;;;;;;;16.15;16.35;101988.47;4472284;32;34763;-80
2022/03/21 11:17:11;;;;;;;13.27;8.10;;;;;;;16.42;16.04;101996.22;4471117;32;34688;-78
2022/03/21 11:19:58;;;;;;;11.60;8.23;;;;;;;15.45;15.93;101989.59;4476965;32;35187;-78
2022/03/21 11:22:44;;;;;;;14.65;8.63;;;;;;;16.78;15.52;101984.78;4466767;32;34378;-80
2022/03/21 11:25:34;;;;;;;14.75;9.00;;;;;;;16.93;14.82;101976.25;4477568;32;33917;-80
2022/03/21 11:28:39;;;;;;;12.82;7.75;;;;;;;17.36;15.51;101967.06;4472961;32;34265;-79
2022/03/21 11:31:43;;;;;;;14.13;8.05;;;;;;;16.16;15.41;101971.56;4479625;32;33947;-79
2022/03/21 11:35:09;;;;;;;13.18;8.18;;;;;;;16.25;16.06;101973.72;4461604;32;34596;-80
2022/03/21 11:38:25;;;;;;;12.93;8.15;;;;;;;16.89;15.08;101972.44;4480686;32;35067;-79
2022/03/21 11:41:21;;;;;;;13.13;8.63;;;;;;;13.37;17.32;101961.41;4471667;32;34583;-79
2022/03/21 11:44:14;;;;;;;15.02;7.82;;;;;;;14.47;17.43;101962.69;4471609;32;34322;-75
2022/03/21 11:47:23;;;;;;;12.40;7.80;;;;;;;15.06;16.76;101961.94;4476327;31;35311;-75
2022/03/21 11:50:25;;;;;;;12.45;7.07;;;;;;;15.21;16.80;101956.31;4480366;32;34959;-73
2022/03/21 11:53:11;;;;;;;;;;;;;;;14.41;17.55;101959.13;4474606;32;34648;-76
2022/03/21 11:55:58;;;;;;;15.88;7.68;;;;;;;14.37;17.53;101952.50;4466254;32;34475;-76
2022/03/21 11:58:53;;;;;;;12.68;7.97;;;;;;;13.54;18.47;101952.88;4470314;32;35532;-76
2022/03/21 12:01:43;;;;;;;13.48;8.15;;;;;;;13.57;18.89;101950.41;4482834;32;34944;-77
2022/03/21 12:04:30;;;;;;;13.82;7.40;;;;;;;12.48;18.61;101942.09;4479811;32;35598;-77
2022/03/21 12:07:16;;;;;;;14.45;8.15;;;;;;;12.68;20.39;101937.78;4448064;32;33881;-75
2022/03/21 12:10:03;;;;;;;12.75;7.45;;;;;;;13.13;19.72;101944.53;4447188;32;35360;-75
2022/03/21 12:12:51;;;;;;;16.10;8.43;;;;;;;13.78;18.15;101931.13;4447579;32;35997;-76
2022/03/21 12:15:49;;;;;;;14.30;7.70;;;;;;;14.69;16.84;101924.56;4449190;32;34609;-76
2022/03/21 12:18:59;;;;;;;13.20;7.95;;;;;;;15.43;16.65;101913.62;4435867;32;35108;-75
2022/03/21 12:21:47;;;;;;;15.23;8.07;;;;;;;15.98;16.69;101913.44;4448036;32;34649;-75
2022/03/21 12:24:48;;;;;;;13.55;7.75;;;;;;;15.95;16.12;101909.31;4447897;32;35158;-75
2022/03/21 12:27:41;;;;;;;13.43;7.30;;;;;;;16.13;15.30;101897.50;4446774;32;35525;-75
2022/03/21 12:30:27;;;;;;;13.57;7.55;;;;;;;15.20;16.29;101891.16;4448713;32;34829;-75
2022/03/21 12:33:16;;;;;;;13.50;7.57;;;;;;;15.12;16.63;101885.41;4448949;32;34637;-76
2022/03/21 12:36:05;;;;;;;15.15;7.00;;;;;;;13.44;17.51;101882.13;4449312;32;35634;-76
2022/03/21 12:38:51;;;;;;;13.88;7.50;;;;;;;13.37;18.09;101871.34;4447938;32;35355;-75
2022/03/21 12:41:37;;;;;;;13.62;8.35;;;;;;;13.37;18.45;101874.09;4446177;32;33244;-76
2022/03/21 12:44:24;;;;;;;13.10;7.90;;;;;;;13.25;17.95;101866.12;4443489;32;34508;-76
2022/03/21 12:47:10;;;;;;;14.20;7.90;;;;;;;12.53;18.96;101862.38;4448831;32;34950;-76
2022/03/21 12:50:09;;;;;;;13.13;8.52;;;;;;;13.42;18.93;101865.84;4448800;32;34402;-76
2022/03/21 12:53:01;;;;;;;12.35;7.50;;;;;;;13.13;18.60;101864.72;4447957;32;34219;-75
2022/03/21 12:56:05;;;;;;;15.13;7.85;;;;;;;12.68;18.33;101850.59;4432823;32;35124;-75
2022/03/21 12:58:59;;;;;;;10.63;6.50;;;;;;;14.51;18.21;101864.47;4447036;32;35834;-76
2022/03/21 13:01:46;;;;;;;11.10;6.07;;;;;;;15.40;15.82;101864.50;4445773;32;34603;-75
2022/03/21 13:10:44;;;;;;;12.32;6.78;;;;;;;16.12;15.49;101848.03;4448982;32;34934;-75
2022/03/21 13:13:43;;;;;;;15.00;7.22;;;;;;;16.17;15.55;101843.25;4445372;32;34471;-74
2022/03/21 13:16:35;;;;;;;11.35;6.70;;;;;;;16.89;14.60;101836.78;4437695;32;35594;-77
2022/03/21 13:19:27;;;;;;;14.23;7.10;;;;;;;17.19;15.16;101846.56;4433315;32;35591;-76
2022/03/21 13:22:13;;;;;;;11.63;7.22;;;;;;;17.40;13.90;101837.91;4448084;32;34540;-75